createdAt,value
2019-05-20T00:00:52.029Z,49.77
2019-05-20T00:03:20.695Z,45.97
2019-05-20T00:05:49.325Z,44.40
2019-05-20T00:08:17.963Z,41.33
2019-05-20T00:10:46.543Z,42.17
2019-05-20T00:13:15.127Z,38.27
2019-05-20T00:15:43.710Z,37.07
2019-05-20T00:18:12.017Z,38.53
2019-05-20T00:20:40.303Z,35.80
2019-05-20T00:23:08.610Z,34.47
2019-05-20T00:25:36.932Z,34.97
2019-05-20T00:28:05.216Z,35.60
2019-05-20T00:30:33.530Z,33.13
2019-05-20T00:33:01.821Z,30.87
2019-05-20T00:35:30.118Z,30.43
2019-05-20T00:37:58.407Z,30.47
2019-05-20T00:40:26.715Z,29.37
2019-05-20T00:42:55.003Z,30.73
2019-05-20T00:45:23.503Z,28.57
2019-05-20T00:47:52.220Z,26.10
2019-05-20T00:50:20.848Z,26.33
2019-05-20T00:52:49.227Z,27.80
2019-05-20T00:55:25.520Z,24.93
2019-05-20T00:57:54.147Z,26.70
2019-05-20T01:00:22.730Z,24.13
2019-05-20T01:02:56.829Z,22.83
2019-05-20T01:05:21.449Z,24.20
2019-05-20T01:07:50.011Z,22.63
2019-05-20T01:10:18.397Z,21.90
2019-05-20T01:12:47.075Z,20.97
2019-05-20T01:15:15.628Z,23.03
2019-05-20T01:17:43.934Z,19.23
2019-05-20T01:20:12.224Z,21.33
2019-05-20T01:22:40.528Z,18.43
2019-05-20T01:25:08.820Z,18.10
2019-05-20T01:27:37.167Z,18.83
2019-05-20T01:30:08.783Z,17.73
2019-05-20T01:32:37.072Z,18.60
2019-05-20T01:35:06.335Z,16.77
2019-05-20T01:37:34.966Z,15.90
2019-05-20T01:40:03.327Z,17.80
2019-05-20T01:42:32.052Z,16.83
2019-05-20T01:45:00.346Z,18.37
2019-05-20T01:47:28.711Z,16.70
2019-05-20T01:49:57.372Z,16.37
2019-05-20T01:52:25.960Z,16.70
2019-05-20T01:54:54.260Z,15.83
2019-05-20T01:57:22.934Z,15.43
2019-05-20T01:59:51.601Z,13.93
2019-05-20T02:02:19.912Z,14.83
2019-05-20T02:04:48.663Z,13.77
2019-05-20T02:07:17.249Z,12.60
2019-05-20T02:09:45.622Z,14.47
2019-05-20T02:12:13.931Z,12.40
2019-05-20T02:14:52.891Z,14.90
2019-05-20T02:17:21.516Z,13.30
2019-05-20T02:19:49.822Z,11.33
2019-05-20T02:22:18.385Z,13.43
2019-05-20T02:24:46.994Z,12.83
2019-05-20T02:27:15.651Z,13.73
2019-05-20T02:29:43.960Z,13.53
2019-05-20T02:32:12.324Z,12.70
2019-05-20T02:34:40.886Z,10.37
2019-05-20T02:37:09.181Z,15.23
2019-05-20T02:39:37.490Z,11.17
2019-05-20T02:42:05.794Z,11.40
2019-05-20T02:44:34.400Z,14.30
2019-05-20T02:47:02.694Z,13.90
2019-05-20T02:49:31.020Z,15.83
2019-05-20T02:51:59.315Z,17.03
2019-05-20T02:54:27.919Z,17.80
2019-05-20T02:56:57.962Z,20.00
2019-05-20T02:59:26.358Z,18.50
2019-05-20T03:01:54.735Z,16.53
2019-05-20T03:04:23.047Z,18.23
2019-05-20T03:06:51.432Z,15.70
2019-05-20T03:09:20.141Z,16.37
2019-05-20T03:11:48.726Z,17.33
2019-05-20T03:14:17.029Z,19.30
2019-05-20T03:16:45.685Z,20.73
2019-05-20T03:19:14.014Z,21.73
2019-05-20T03:21:42.648Z,21.23
2019-05-20T03:24:11.042Z,21.90
2019-05-20T03:26:39.613Z,20.03
2019-05-20T03:29:07.936Z,19.43
2019-05-20T03:31:36.637Z,19.93
2019-05-20T03:34:04.982Z,20.83
2019-05-20T03:36:33.286Z,20.70
2019-05-20T03:39:01.912Z,26.30
2019-05-20T03:41:30.503Z,35.07
2019-05-20T03:43:58.792Z,39.53
2019-05-20T03:46:27.356Z,39.23
2019-05-20T03:48:55.660Z,38.83
2019-05-20T03:51:23.963Z,45.33
2019-05-20T03:53:52.268Z,40.57
2019-05-20T03:56:20.577Z,42.47
2019-05-20T03:58:49.124Z,42.40
2019-05-20T04:01:17.749Z,42.97
2019-05-20T04:03:46.125Z,40.77
2019-05-20T04:06:14.480Z,38.47
2019-05-20T04:08:42.799Z,37.60
2019-05-20T04:11:11.095Z,34.30
2019-05-20T04:13:39.854Z,32.83
2019-05-20T04:16:08.161Z,31.87
2019-05-20T04:18:36.447Z,31.47
2019-05-20T04:21:05.176Z,32.77
2019-05-20T04:23:33.494Z,26.70
2019-05-20T04:26:01.862Z,28.23
2019-05-20T04:28:30.166Z,25.87
2019-05-20T04:30:58.466Z,26.57
2019-05-20T04:33:27.075Z,25.00
2019-05-20T04:35:55.388Z,26.43
2019-05-20T04:38:23.819Z,24.30
2019-05-20T04:40:52.114Z,22.73
2019-05-20T04:43:20.489Z,24.57
2019-05-20T04:45:48.772Z,22.83
2019-05-20T04:48:17.340Z,21.20
2019-05-20T04:50:45.662Z,21.77
2019-05-20T04:53:14.311Z,21.17
2019-05-20T04:55:42.924Z,18.73
2019-05-20T04:58:11.291Z,19.53
2019-05-20T05:00:53.342Z,18.77
2019-05-20T05:03:22.181Z,18.97
2019-05-20T05:05:50.845Z,18.93
2019-05-20T05:08:20.263Z,17.90
2019-05-20T05:10:48.863Z,17.17
2019-05-20T05:13:17.238Z,16.87
2019-05-20T05:15:45.694Z,16.70
2019-05-20T05:18:13.997Z,17.00
2019-05-20T05:20:42.285Z,16.90
2019-05-20T05:23:10.608Z,15.70
2019-05-20T05:25:39.220Z,18.53
2019-05-20T05:28:07.527Z,15.23
2019-05-20T05:30:35.931Z,16.67
2019-05-20T05:33:04.227Z,16.13
2019-05-20T05:35:32.569Z,15.10
2019-05-20T05:38:00.988Z,15.77
2019-05-20T05:40:30.708Z,14.47
2019-05-20T05:42:59.006Z,14.40
2019-05-20T05:45:31.659Z,14.17
2019-05-20T05:48:00.027Z,13.90
2019-05-20T05:50:28.626Z,14.83
2019-05-20T05:52:56.989Z,14.47
2019-05-20T05:55:26.107Z,12.77
2019-05-20T05:57:54.390Z,13.50
2019-05-20T06:00:22.777Z,13.93
2019-05-20T06:02:51.065Z,12.80
2019-05-20T06:05:19.726Z,12.33
2019-05-20T06:07:48.081Z,14.03
2019-05-20T06:10:16.382Z,12.97
2019-05-20T06:12:45.062Z,12.03
2019-05-20T06:15:13.643Z,12.27
2019-05-20T06:17:41.954Z,11.37
2019-05-20T06:20:10.615Z,10.23
2019-05-20T06:22:39.194Z,11.23
2019-05-20T06:25:07.819Z,12.73
2019-05-20T06:27:36.409Z,10.80
2019-05-20T06:30:10.116Z,8.77
2019-05-20T06:32:38.752Z,10.13
2019-05-20T06:35:09.625Z,9.83
2019-05-20T06:37:39.823Z,9.97
2019-05-20T06:40:08.102Z,8.97
2019-05-20T06:42:36.411Z,8.17
2019-05-20T06:45:06.588Z,8.33
2019-05-20T06:47:35.164Z,10.80
2019-05-20T06:50:07.975Z,8.40
2019-05-20T06:52:36.415Z,7.80
2019-05-20T06:55:07.849Z,8.70
2019-05-20T06:57:36.123Z,7.77
2019-05-20T07:00:07.188Z,7.23
2019-05-20T07:02:35.646Z,6.87
2019-05-20T07:05:05.979Z,7.70
2019-05-20T07:07:34.268Z,7.33
2019-05-20T07:10:02.589Z,8.03
2019-05-20T07:12:40.636Z,7.20
2019-05-20T07:15:01.183Z,7.00
2019-05-20T07:17:29.510Z,6.83
2019-05-20T07:19:58.116Z,7.63
2019-05-20T07:22:26.705Z,6.43
2019-05-20T07:24:55.298Z,7.37
2019-05-20T07:27:23.720Z,7.27
2019-05-20T07:29:53.959Z,8.97
2019-05-20T07:32:22.454Z,14.20
2019-05-20T07:34:50.797Z,13.80
2019-05-20T07:37:19.201Z,14.37
2019-05-20T07:39:48.208Z,15.47
2019-05-20T07:42:16.827Z,14.33
2019-05-20T07:44:45.646Z,13.63
2019-05-20T07:47:14.304Z,13.13
2019-05-20T07:49:42.976Z,15.97
2019-05-20T07:52:11.655Z,17.57
2019-05-20T07:54:40.042Z,58.60
2019-05-20T07:57:09.084Z,36.63
2019-05-20T07:59:37.386Z,65.33
2019-05-20T08:02:05.712Z,83.53
2019-05-20T08:04:34.145Z,80.87
2019-05-20T08:07:26.079Z,79.33
2019-05-20T08:09:32.702Z,87.77
2019-05-20T08:12:01.080Z,63.87
2019-05-20T08:14:29.468Z,78.03
2019-05-20T08:16:57.762Z,52.37
2019-05-20T08:19:26.064Z,86.13
2019-05-20T08:21:54.510Z,78.50
2019-05-20T08:24:22.808Z,82.40
2019-05-20T08:26:51.213Z,74.60
2019-05-20T08:29:19.590Z,68.40
2019-05-20T08:31:47.900Z,73.50
2019-05-20T08:34:16.271Z,67.33
2019-05-20T08:36:45.948Z,67.40
2019-05-20T08:39:14.401Z,66.27
2019-05-20T08:41:43.026Z,66.50
2019-05-20T08:44:11.333Z,62.47
2019-05-20T08:46:39.630Z,77.93
2019-05-20T08:49:11.099Z,81.77
2019-05-20T08:51:37.981Z,103.17
2019-05-20T08:54:06.267Z,84.40
2019-05-20T08:56:34.653Z,97.57
2019-05-20T08:59:03.521Z,99.90
2019-05-20T09:01:32.110Z,95.03
2019-05-20T09:04:00.741Z,95.63
2019-05-20T09:06:29.483Z,96.37
2019-05-20T09:08:57.871Z,93.10
2019-05-20T09:11:26.183Z,90.83
2019-05-20T09:13:54.569Z,100.40
2019-05-20T09:16:22.945Z,104.60
2019-05-20T09:18:51.264Z,130.73
2019-05-20T09:21:19.599Z,128.43
2019-05-20T09:23:48.233Z,125.43
2019-05-20T09:26:16.884Z,131.30
2019-05-20T09:28:45.306Z,122.03
2019-05-20T09:31:13.772Z,118.00
2019-05-20T09:33:42.128Z,119.13
2019-05-20T09:36:10.499Z,118.70
2019-05-20T09:38:38.947Z,117.07
2019-05-20T09:41:07.604Z,111.40
2019-05-20T09:43:36.182Z,113.43
2019-05-20T09:46:08.060Z,116.50
2019-05-20T09:48:34.519Z,113.30
2019-05-20T09:51:02.828Z,110.83
2019-05-20T09:53:31.457Z,112.20
2019-05-20T09:55:59.844Z,101.63
2019-05-20T09:58:28.156Z,107.43
2019-05-20T10:00:56.472Z,104.10
2019-05-20T10:03:24.763Z,104.27
2019-05-20T10:05:53.644Z,92.70
2019-05-20T10:08:36.455Z,100.23
2019-05-20T10:10:51.989Z,128.67
2019-05-20T10:13:20.827Z,112.07
2019-05-20T10:15:49.438Z,93.83
2019-05-20T10:18:35.588Z,104.83
2019-05-20T10:20:48.116Z,94.23
2019-05-20T10:23:16.503Z,98.60
2019-05-20T10:25:45.078Z,88.63
2019-05-20T10:28:13.377Z,82.37
2019-05-20T10:30:42.044Z,78.00
2019-05-20T10:33:10.936Z,92.03
2019-05-20T10:35:40.157Z,109.90
2019-05-20T10:38:08.515Z,98.20
2019-05-20T10:40:36.829Z,106.20
2019-05-20T10:43:05.150Z,67.83
2019-05-20T10:45:33.812Z,49.43
2019-05-20T10:48:02.262Z,25.00
2019-05-20T10:50:31.025Z,26.87
2019-05-20T10:52:59.392Z,26.40
2019-05-20T10:55:28.160Z,19.57
2019-05-20T10:57:56.867Z,24.93
2019-05-20T11:00:25.156Z,21.47
2019-05-20T11:02:53.459Z,16.27
2019-05-20T11:05:22.136Z,22.97
2019-05-20T11:07:50.510Z,19.50
2019-05-20T11:10:19.365Z,17.73
2019-05-20T11:12:48.064Z,18.80
2019-05-20T11:15:16.393Z,21.20
2019-05-20T11:17:45.046Z,22.97
2019-05-20T11:20:13.711Z,26.53
2019-05-20T11:22:42.319Z,22.30
2019-05-20T11:25:11.141Z,20.83
2019-05-20T11:27:39.506Z,27.40
2019-05-20T11:30:07.939Z,29.13
2019-05-20T11:32:36.533Z,26.30
2019-05-20T11:35:07.158Z,31.17
2019-05-20T11:37:36.069Z,25.40
2019-05-20T11:40:09.655Z,22.23
2019-05-20T11:42:38.431Z,21.10
2019-05-20T11:45:08.160Z,23.40
2019-05-20T11:47:36.483Z,21.17
2019-05-20T11:50:07.090Z,27.80
2019-05-20T11:52:35.401Z,27.73
2019-05-20T11:55:08.041Z,50.33
2019-05-20T11:57:36.411Z,78.17
2019-05-20T12:00:06.928Z,67.27
2019-05-20T12:02:35.210Z,59.53
2019-05-20T12:05:04.268Z,47.47
2019-05-20T12:07:32.574Z,45.03
2019-05-20T12:10:00.927Z,41.43
2019-05-20T12:12:29.230Z,38.73
2019-05-20T12:14:57.530Z,36.90
2019-05-20T12:17:25.838Z,35.80
2019-05-20T12:19:54.487Z,55.60
2019-05-20T12:22:23.147Z,38.30
2019-05-20T12:24:51.918Z,31.50
2019-05-20T12:27:20.629Z,35.47
2019-05-20T12:29:49.211Z,41.20
2019-05-20T12:32:17.827Z,69.63
2019-05-20T12:34:46.225Z,59.42
2019-05-20T12:37:14.601Z,71.30
2019-05-20T12:39:43.255Z,74.57
2019-05-20T12:42:12.140Z,66.73
2019-05-20T12:44:40.687Z,76.80
2019-05-20T12:47:09.118Z,84.00
2019-05-20T12:49:37.606Z,71.53
2019-05-20T12:52:06.086Z,64.37
2019-05-20T12:54:34.449Z,59.57
2019-05-20T12:57:03.011Z,68.80
2019-05-20T12:59:31.705Z,125.53
2019-05-20T13:02:00.313Z,105.63
2019-05-20T13:04:28.736Z,97.83
2019-05-20T13:06:57.352Z,98.97
2019-05-20T13:09:25.950Z,87.10
2019-05-20T13:11:54.313Z,91.43
2019-05-20T13:14:22.616Z,91.67
2019-05-20T13:16:51.001Z,87.20
2019-05-20T13:19:19.560Z,79.00
2019-05-20T13:21:48.227Z,91.93
2019-05-20T13:24:16.524Z,121.30
2019-05-20T13:26:45.207Z,80.30
2019-05-20T13:29:13.652Z,91.53
2019-05-20T13:31:42.282Z,109.93
2019-05-20T13:34:10.625Z,114.07
2019-05-20T13:36:38.917Z,103.77
2019-05-20T13:39:07.727Z,102.47
2019-05-20T13:41:36.305Z,100.83
2019-05-20T13:44:05.563Z,94.30
2019-05-20T13:46:33.881Z,94.03
2019-05-20T13:49:02.326Z,91.63
2019-05-20T13:51:30.656Z,86.43
2019-05-20T13:53:58.948Z,91.00
2019-05-20T13:56:27.257Z,84.97
2019-05-20T13:58:55.877Z,91.60
2019-05-20T14:01:24.327Z,99.37
2019-05-20T14:03:52.704Z,85.87
2019-05-20T14:06:21.037Z,84.93
2019-05-20T14:08:49.325Z,85.60
2019-05-20T14:11:17.636Z,76.47
2019-05-20T14:13:45.945Z,171.33
2019-05-20T14:16:14.527Z,198.10
2019-05-20T14:18:42.839Z,185.00
2019-05-20T14:21:11.496Z,219.93
2019-05-20T14:23:39.786Z,194.17
2019-05-20T14:26:08.113Z,181.30
2019-05-20T14:28:36.729Z,176.60
2019-05-20T14:31:06.258Z,171.20
2019-05-20T14:33:35.123Z,159.67
2019-05-20T14:36:03.439Z,139.70
2019-05-20T14:38:32.191Z,143.20
2019-05-20T14:41:00.877Z,305.50
2019-05-20T14:43:29.260Z,150.33
2019-05-20T14:45:58.183Z,159.83
2019-05-20T14:48:27.871Z,183.37
2019-05-20T14:50:56.232Z,174.97
2019-05-20T14:53:24.636Z,159.63
2019-05-20T14:55:53.305Z,166.93
2019-05-20T14:58:21.846Z,161.03
2019-05-20T15:00:50.173Z,160.43
2019-05-20T15:03:18.743Z,155.80
2019-05-20T15:05:47.372Z,147.63
2019-05-20T15:08:16.029Z,140.20
2019-05-20T15:10:44.547Z,132.27
2019-05-20T15:13:13.177Z,134.57
2019-05-20T15:15:41.763Z,126.10
2019-05-20T15:18:10.349Z,127.83
2019-05-20T15:20:39.031Z,120.73
2019-05-20T15:23:07.324Z,123.37
2019-05-20T15:25:35.905Z,119.10
2019-05-20T15:28:04.209Z,117.47
2019-05-20T15:30:32.902Z,115.10
2019-05-20T15:33:01.332Z,121.33
2019-05-20T15:35:29.710Z,143.33
2019-05-20T15:37:58.004Z,133.77
2019-05-20T15:40:26.356Z,132.30
2019-05-20T15:42:54.709Z,124.47
2019-05-20T15:45:23.032Z,131.60
2019-05-20T15:47:51.332Z,137.80
2019-05-20T15:50:19.680Z,142.93
2019-05-20T15:52:48.268Z,172.07
2019-05-20T15:55:18.003Z,189.27
2019-05-20T15:57:46.555Z,193.53
2019-05-20T16:00:15.149Z,181.87
2019-05-20T16:02:43.459Z,191.67
2019-05-20T16:05:12.117Z,227.57
2019-05-20T16:07:40.419Z,229.30
2019-05-20T16:10:09.071Z,214.83
2019-05-20T16:12:37.379Z,224.40
2019-05-20T16:15:07.401Z,214.37
2019-05-20T16:17:35.717Z,203.50
2019-05-20T16:20:07.161Z,255.07
2019-05-20T16:22:35.844Z,232.47
2019-05-20T16:25:08.102Z,420.03
2019-05-20T16:27:36.486Z,295.07
2019-05-20T16:30:09.150Z,294.10
2019-05-20T16:32:37.807Z,277.20
2019-05-20T16:35:06.859Z,254.27
2019-05-20T16:37:35.175Z,365.10
2019-05-20T16:40:06.884Z,334.33
2019-05-20T16:42:35.615Z,253.13
2019-05-20T16:45:11.663Z,266.77
2019-05-20T16:47:39.133Z,241.70
2019-05-20T16:50:08.529Z,231.83
2019-05-20T16:52:38.037Z,228.33
2019-05-20T16:55:06.431Z,273.20
2019-05-20T16:57:34.877Z,320.17
2019-05-20T17:00:07.712Z,351.33
2019-05-20T17:02:34.055Z,360.83
2019-05-20T17:05:02.398Z,320.47
2019-05-20T17:07:31.124Z,286.10
2019-05-20T17:09:59.495Z,273.27
2019-05-20T17:12:27.807Z,273.37
2019-05-20T17:14:56.748Z,271.83
2019-05-20T17:17:25.420Z,261.90
2019-05-20T17:19:54.091Z,259.70
2019-05-20T17:22:22.392Z,256.17
2019-05-20T17:24:51.203Z,251.27
2019-05-20T17:27:19.567Z,245.97
2019-05-20T17:29:47.899Z,447.20
2019-05-20T17:32:16.196Z,353.33
2019-05-20T17:34:44.500Z,340.70
2019-05-20T17:37:12.811Z,320.43
2019-05-20T17:39:41.195Z,345.20
2019-05-20T17:42:09.670Z,324.20
2019-05-20T17:44:38.295Z,329.50
2019-05-20T17:47:06.891Z,311.90
2019-05-20T17:49:35.269Z,298.60
2019-05-20T17:52:03.637Z,418.07
2019-05-20T17:54:32.211Z,356.83
2019-05-20T17:57:00.804Z,349.87
2019-05-20T17:59:29.388Z,352.20
2019-05-20T18:01:57.704Z,335.93
2019-05-20T18:04:26.000Z,303.13
2019-05-20T18:06:54.769Z,316.13
2019-05-20T18:09:24.797Z,311.10
2019-05-20T18:11:53.443Z,307.80
2019-05-20T18:14:21.803Z,300.07
2019-05-20T18:16:50.427Z,297.53
2019-05-20T18:19:18.997Z,282.53
2019-05-20T18:21:47.866Z,281.47
2019-05-20T18:24:16.545Z,283.50
2019-05-20T18:26:44.850Z,245.03
2019-05-20T18:29:13.163Z,249.77
2019-05-20T18:31:42.168Z,227.53
2019-05-20T18:34:10.912Z,286.37
2019-05-20T18:36:39.298Z,258.23
2019-05-20T18:39:08.988Z,266.20
2019-05-20T18:41:37.289Z,379.73
2019-05-20T18:44:05.605Z,274.53
2019-05-20T18:46:34.430Z,307.97
2019-05-20T18:49:02.729Z,302.90
2019-05-20T18:51:31.416Z,286.33
2019-05-20T18:53:59.714Z,264.20
2019-05-20T18:56:28.043Z,238.10
2019-05-20T18:58:56.446Z,243.03
2019-05-20T19:01:24.782Z,238.43
2019-05-20T19:03:53.484Z,260.13
2019-05-20T19:06:22.172Z,238.67
2019-05-20T19:08:50.792Z,235.87
2019-05-20T19:11:19.432Z,241.60
2019-05-20T19:13:48.021Z,215.43
2019-05-20T19:16:16.651Z,216.63
2019-05-20T19:18:45.139Z,224.20
2019-05-20T19:21:14.019Z,211.27
2019-05-20T19:23:42.777Z,199.70
2019-05-20T19:26:23.730Z,178.17
2019-05-20T19:28:41.662Z,190.97
2019-05-20T19:31:10.265Z,179.87
2019-05-20T19:33:38.839Z,185.60
2019-05-20T19:36:07.152Z,310.67
2019-05-20T19:38:35.906Z,197.87
2019-05-20T19:41:04.890Z,217.07
2019-05-20T19:43:33.498Z,233.77
2019-05-20T19:46:01.830Z,272.80
2019-05-20T19:48:30.197Z,214.20
2019-05-20T19:50:58.994Z,241.57
2019-05-20T19:53:28.387Z,218.77
2019-05-20T19:55:57.044Z,219.40
2019-05-20T19:58:25.897Z,206.67
2019-05-20T20:00:56.724Z,187.63
2019-05-20T20:03:24.538Z,182.77
2019-05-20T20:05:53.118Z,198.33
2019-05-20T20:08:21.781Z,183.50
2019-05-20T20:10:50.460Z,178.30
2019-05-20T20:13:19.065Z,180.37
2019-05-20T20:15:47.741Z,280.03
2019-05-20T20:18:16.287Z,191.30
2019-05-20T20:20:44.599Z,198.33
2019-05-20T20:23:14.263Z,229.50
2019-05-20T20:25:42.883Z,220.57
2019-05-20T20:28:11.469Z,193.63
2019-05-20T20:30:39.789Z,171.60
2019-05-20T20:33:08.095Z,167.57
2019-05-20T20:35:38.339Z,169.97
2019-05-20T20:38:06.888Z,165.50
2019-05-20T20:40:35.190Z,172.43
2019-05-20T20:43:03.677Z,165.87
2019-05-20T20:45:32.250Z,170.37
2019-05-20T20:48:00.968Z,152.13
2019-05-20T20:50:29.644Z,172.83
2019-05-20T20:52:57.955Z,154.47
2019-05-20T20:55:26.526Z,176.47
2019-05-20T20:57:55.196Z,216.30
2019-05-20T21:00:23.767Z,227.90
2019-05-20T21:02:53.698Z,204.20
2019-05-20T21:05:22.121Z,263.40
2019-05-20T21:07:51.737Z,238.37
2019-05-20T21:10:21.153Z,169.43
2019-05-20T21:12:49.518Z,171.13
2019-05-20T21:15:17.865Z,170.07
2019-05-20T21:17:46.527Z,159.73
2019-05-20T21:20:14.828Z,166.07
2019-05-20T21:22:43.510Z,153.87
2019-05-20T21:25:12.492Z,146.23
2019-05-20T21:27:41.171Z,148.50
2019-05-20T21:30:09.857Z,152.23
2019-05-20T21:32:38.742Z,145.77
2019-05-20T21:35:07.324Z,142.67
2019-05-20T21:37:36.157Z,126.00
2019-05-20T21:40:05.823Z,149.27
2019-05-20T21:42:34.400Z,218.03
2019-05-20T21:45:03.426Z,196.90
2019-05-20T21:47:32.095Z,205.57
2019-05-20T21:50:00.465Z,171.47
2019-05-20T21:52:29.083Z,157.47
2019-05-20T21:54:57.764Z,143.73
2019-05-20T21:57:26.371Z,138.70
2019-05-20T21:59:54.947Z,130.53
2019-05-20T22:02:26.518Z,125.67
2019-05-20T22:04:53.817Z,123.07
2019-05-20T22:07:22.108Z,146.60
2019-05-20T22:09:51.612Z,137.57
2019-05-20T22:12:20.176Z,134.97
2019-05-20T22:14:48.755Z,119.77
2019-05-20T22:17:17.403Z,124.93
2019-05-20T22:19:46.042Z,119.57
2019-05-20T22:22:25.813Z,105.43
2019-05-20T22:24:54.193Z,102.17
2019-05-20T22:27:22.498Z,92.03
2019-05-20T22:29:50.843Z,102.27
2019-05-20T22:32:19.746Z,98.93
2019-05-20T22:34:53.438Z,104.30
2019-05-20T22:37:18.404Z,112.63
2019-05-20T22:39:46.737Z,102.03
2019-05-20T22:42:15.276Z,98.63
2019-05-20T22:44:43.688Z,92.30
2019-05-20T22:47:13.911Z,95.27
2019-05-20T22:49:42.548Z,82.87
2019-05-20T22:52:10.853Z,83.23
2019-05-20T22:54:39.236Z,77.07
2019-05-20T22:57:07.568Z,76.87
2019-05-20T22:59:35.854Z,79.57
2019-05-20T23:02:04.163Z,71.23
2019-05-20T23:04:44.571Z,88.70
2019-05-20T23:07:14.211Z,84.83
2019-05-20T23:09:42.497Z,85.50
2019-05-20T23:12:11.180Z,90.07
2019-05-20T23:14:39.580Z,94.33
2019-05-20T23:17:07.888Z,97.50
2019-05-20T23:19:36.179Z,96.30
2019-05-20T23:22:04.748Z,96.57
2019-05-20T23:24:33.116Z,90.77
2019-05-20T23:27:01.505Z,91.73
2019-05-20T23:29:30.131Z,90.20
2019-05-20T23:31:58.431Z,91.57
2019-05-20T23:34:26.711Z,87.47
2019-05-20T23:36:55.368Z,90.80
2019-05-20T23:39:23.652Z,89.27
2019-05-20T23:41:51.957Z,88.37
2019-05-20T23:44:20.237Z,86.93
2019-05-20T23:46:48.633Z,88.97
2019-05-20T23:49:17.322Z,84.27
2019-05-20T23:51:45.642Z,84.87
2019-05-20T23:54:14.223Z,82.93
2019-05-20T23:56:42.525Z,82.70
2019-05-20T23:59:11.183Z,85.57
